Aviation Digital Data Service (ADDS)

Output produced by METARs form (1311 UTC 26 March 2019)
found at http://www.aviationweather.gov/metar/data/
 
METAR text: CYXY 261300Z 35004KT 310V010 6SM -SHSN OVC030 00/M01 A2996 RMK SC8 CVCTV CLD EMBD SLP178
Conditions at: CYXY (WHITEHORSE AIRPO, YT, CA) observed 1300 UTC 26 March 2019
Temperature: 0.0°C (32°F)
Dewpoint: -1.0°C (30°F) [RH = 93%]
Pressure (altimeter): 29.96 inches Hg (1014.6 mb)
[Sea-level pressure: 1017.8 mb]
Winds: from the N (350 degrees) at 5 MPH (4 knots; 2.1 m/s)
Visibility: 6 miles (10 km)
Ceiling: 3000 feet AGL
Clouds: overcast cloud deck at 3000 feet AGL
Weather: -SHSN  (light snow showers)

METAR text: CYXY 261200Z 34007KT 6SM -SHSN OVC030 01/M01 A2997 RMK SC8 CVCTV CLD EMBD SLP179
Conditions at: CYXY (WHITEHORSE AIRPO, YT, CA) observed 1200 UTC 26 March 2019
Temperature: 1.0°C (34°F)
Dewpoint: -1.0°C (30°F) [RH = 86%]
Pressure (altimeter): 29.97 inches Hg (1015.0 mb)
[Sea-level pressure: 1017.9 mb]
Winds: from the NNW (340 degrees) at 8 MPH (7 knots; 3.6 m/s)
Visibility: 6 miles (10 km)
Ceiling: 3000 feet AGL
Clouds: overcast cloud deck at 3000 feet AGL
Weather: -SHSN  (light snow showers)

METAR text: CYXY 261143Z 33006KT 6SM -SHSN OVC030 01/M01 A2997 RMK SC8 CVCTV CLD EMBD SLP180
Conditions at: CYXY (WHITEHORSE AIRPO, YT, CA) observed 1143 UTC 26 March 2019
Temperature: 1.0°C (34°F)
Dewpoint: -1.0°C (30°F) [RH = 86%]
Pressure (altimeter): 29.97 inches Hg (1015.0 mb)
[Sea-level pressure: 1018.0 mb]
Winds: from the NNW (330 degrees) at 7 MPH (6 knots; 3.1 m/s)
Visibility: 6 miles (10 km)
Ceiling: 3000 feet AGL
Clouds: overcast cloud deck at 3000 feet AGL
Weather: -SHSN  (light snow showers)

METAR text: CYXY 261100Z 33006KT 15SM OVC040 01/M01 A2996 RMK SC8 SLP177
Conditions at: CYXY (WHITEHORSE AIRPO, YT, CA) observed 1100 UTC 26 March 2019
Temperature: 1.0°C (34°F)
Dewpoint: -1.0°C (30°F) [RH = 86%]
Pressure (altimeter): 29.96 inches Hg (1014.6 mb)
[Sea-level pressure: 1017.7 mb]
Winds: from the NNW (330 degrees) at 7 MPH (6 knots; 3.1 m/s)
Visibility: 15 miles (24 km)
Ceiling: 4000 feet AGL
Clouds: overcast cloud deck at 4000 feet AGL
Weather: no significant weather observed at this time

METAR text: CYXY 261034Z 34003KT 15SM OVC045 01/M00 A2996 RMK SC8 SLP177
Conditions at: CYXY (WHITEHORSE AIRPO, YT, CA) observed 1034 UTC 26 March 2019
Temperature: 1.0°C (34°F)
Dewpoint: 0.0°C (32°F) [RH = 93%]
Pressure (altimeter): 29.96 inches Hg (1014.6 mb)
[Sea-level pressure: 1017.7 mb]
Winds: from the NNW (340 degrees) at 3 MPH (3 knots; 1.5 m/s)
Visibility: 15 miles (24 km)
Ceiling: 4500 feet AGL
Clouds: overcast cloud deck at 4500 feet AGL
Weather: no significant weather observed at this time

METAR text: CYXY 261000Z 29003KT 6SM -SHRASN OVC050 01/M00 A2996 RMK SC8 CVCTV CLD EMBD SLP177
Conditions at: CYXY (WHITEHORSE AIRPO, YT, CA) observed 1000 UTC 26 March 2019
Temperature: 1.0°C (34°F)
Dewpoint: 0.0°C (32°F) [RH = 93%]
Pressure (altimeter): 29.96 inches Hg (1014.6 mb)
[Sea-level pressure: 1017.7 mb]
Winds: from the WNW (290 degrees) at 3 MPH (3 knots; 1.5 m/s)
Visibility: 6 miles (10 km)
Ceiling: 5000 feet AGL
Clouds: overcast cloud deck at 5000 feet AGL
Weather: -SHRA -SHSN  (light rain showers, light snow showers)

METAR text: CYXY 260900Z VRB02KT 6SM -SHRASN BKN040 OVC100 01/M00 A2996 RMK SC6AC2 CVCTV CLD EMBD SLP177
Conditions at: CYXY (WHITEHORSE AIRPO, YT, CA) observed 0900 UTC 26 March 2019
Temperature: 1.0°C (34°F)
Dewpoint: 0.0°C (32°F) [RH = 93%]
Pressure (altimeter): 29.96 inches Hg (1014.6 mb)
[Sea-level pressure: 1017.7 mb]
Winds: variable direction winds at 2 MPH (2 knots; 1.0 m/s)
Visibility: 6 miles (10 km)
Ceiling: 4000 feet AGL
Clouds: broken clouds at 4000 feet AGL
overcast cloud deck at 10000 feet AGL
Weather: -SHRA -SHSN  (light rain showers, light snow showers)

METAR text: CYXY 260800Z 35005KT 6SM -SHRASN BKN030 OVC100 01/00 A2997 RMK SC6AC2 CVCTV CLD EMBD SLP183
Conditions at: CYXY (WHITEHORSE AIRPO, YT, CA) observed 0800 UTC 26 March 2019
Temperature: 1.0°C (34°F)
Dewpoint: 0.0°C (32°F) [RH = 93%]
Pressure (altimeter): 29.97 inches Hg (1015.0 mb)
[Sea-level pressure: 1018.3 mb]
Winds: from the N (350 degrees) at 6 MPH (5 knots; 2.6 m/s)
Visibility: 6 miles (10 km)
Ceiling: 3000 feet AGL
Clouds: broken clouds at 3000 feet AGL
overcast cloud deck at 10000 feet AGL
Weather: -SHRA -SHSN  (light rain showers, light snow showers)

METAR text: CYXY 260727Z 33009G18KT 4SM -SHRASN BKN020 OVC100 02/M01 A2997 RMK SC6AC2 CVCTV CLD EMBD SLP185
Conditions at: CYXY (WHITEHORSE AIRPO, YT, CA) observed 0727 UTC 26 March 2019
Temperature: 2.0°C (36°F)
Dewpoint: -1.0°C (30°F) [RH = 80%]
Pressure (altimeter): 29.97 inches Hg (1015.0 mb)
[Sea-level pressure: 1018.5 mb]
Winds: from the NNW (330 degrees) at 10 MPH (9 knots; 4.6 m/s)
gusting to 21 MPH (18 knots; 9.3 m/s)
Visibility: 4 miles ( 6 km)
Ceiling: 2000 feet AGL
Clouds: broken clouds at 2000 feet AGL
overcast cloud deck at 10000 feet AGL
Weather: -SHRA -SHSN  (light rain showers, light snow showers)

METAR text: CYXY 260724Z 32013KT 4SM -SHRASN BKN020 OVC100 03/M01 A2997 RMK SC6AC2 CVCTV CLD EMBD SLP184
Conditions at: CYXY (WHITEHORSE AIRPO, YT, CA) observed 0724 UTC 26 March 2019
Temperature: 3.0°C (37°F)
Dewpoint: -1.0°C (30°F) [RH = 75%]
Pressure (altimeter): 29.97 inches Hg (1015.0 mb)
[Sea-level pressure: 1018.4 mb]
Winds: from the NW (320 degrees) at 15 MPH (13 knots; 6.7 m/s)
Visibility: 4 miles ( 6 km)
Ceiling: 2000 feet AGL
Clouds: broken clouds at 2000 feet AGL
overcast cloud deck at 10000 feet AGL
Weather: -SHRA -SHSN  (light rain showers, light snow showers)

METAR text: CYXY 260721Z 32012KT 290V350 6SM -SHRA BKN040 OVC100 03/M02 A2997 RMK SC6AC2 CVCTV CLD EMBD SLP183
Conditions at: CYXY (WHITEHORSE AIRPO, YT, CA) observed 0721 UTC 26 March 2019
Temperature: 3.0°C (37°F)
Dewpoint: -2.0°C (28°F) [RH = 70%]
Pressure (altimeter): 29.97 inches Hg (1015.0 mb)
[Sea-level pressure: 1018.3 mb]
Winds: from the NW (320 degrees) at 14 MPH (12 knots; 6.2 m/s)
Visibility: 6 miles (10 km)
Ceiling: 4000 feet AGL
Clouds: broken clouds at 4000 feet AGL
overcast cloud deck at 10000 feet AGL
Weather: -SHRA  (light rain showers)

METAR text: CYXY 260700Z 29013KT 15SM BKN060 OVC100 04/M02 A2996 RMK SC6AC2 SLP179
Conditions at: CYXY (WHITEHORSE AIRPO, YT, CA) observed 0700 UTC 26 March 2019
Temperature: 4.0°C (39°F)
Dewpoint: -2.0°C (28°F) [RH = 65%]
Pressure (altimeter): 29.96 inches Hg (1014.6 mb)
[Sea-level pressure: 1017.9 mb]
Winds: from the WNW (290 degrees) at 15 MPH (13 knots; 6.7 m/s)
Visibility: 15 miles (24 km)
Ceiling: 6000 feet AGL
Clouds: broken clouds at 6000 feet AGL
overcast cloud deck at 10000 feet AGL
Weather: no significant weather observed at this time

METAR text: CYXY 260655Z 28011KT 270V350 15SM BKN060 OVC100 04/M02 A2996 RMK SC6AC2 WSHFT 0647 SLP180
Conditions at: CYXY (WHITEHORSE AIRPO, YT, CA) observed 0655 UTC 26 March 2019
Temperature: 4.0°C (39°F)
Dewpoint: -2.0°C (28°F) [RH = 65%]
Pressure (altimeter): 29.96 inches Hg (1014.6 mb)
[Sea-level pressure: 1018.0 mb]
Winds: from the W (280 degrees) at 13 MPH (11 knots; 5.7 m/s)
Visibility: 15 miles (24 km)
Ceiling: 6000 feet AGL
Clouds: broken clouds at 6000 feet AGL
overcast cloud deck at 10000 feet AGL
Weather: no significant weather observed at this time

METAR text: CYXY 260600Z 36006G17KT 330V030 15SM BKN035 OVC120 05/M03 A2995 RMK SC6AC2 SLP177
Conditions at: CYXY (WHITEHORSE AIRPO, YT, CA) observed 0600 UTC 26 March 2019
Temperature: 5.0°C (41°F)
Dewpoint: -3.0°C (27°F) [RH = 56%]
Pressure (altimeter): 29.95 inches Hg (1014.3 mb)
[Sea-level pressure: 1017.7 mb]
Winds: from the N (360 degrees) at 7 MPH (6 knots; 3.1 m/s)
gusting to 20 MPH (17 knots; 8.7 m/s)
Visibility: 15 miles (24 km)
Ceiling: 3500 feet AGL
Clouds: broken clouds at 3500 feet AGL
overcast cloud deck at 12000 feet AGL
Weather: no significant weather observed at this time

METAR text: CYXY 260500Z 36003KT 310V020 15SM SCT060 BKN200 04/M05 A2992 RMK SC4CI3 SLP171
Conditions at: CYXY (WHITEHORSE AIRPO, YT, CA) observed 0500 UTC 26 March 2019
Temperature: 4.0°C (39°F)
Dewpoint: -5.0°C (23°F) [RH = 52%]
Pressure (altimeter): 29.92 inches Hg (1013.3 mb)
[Sea-level pressure: 1017.1 mb]
Winds: from the N (360 degrees) at 3 MPH (3 knots; 1.5 m/s)
Visibility: 15 miles (24 km)
Ceiling: 20000 feet AGL
Clouds: scattered clouds at 6000 feet AGL
broken clouds at 20000 feet AGL
Weather: no significant weather observed at this time

METAR text: CYXY 260400Z 29005KT 30SM SCT100 BKN200 05/M05 A2992 RMK AC4CI3 SLP170
Conditions at: CYXY (WHITEHORSE AIRPO, YT, CA) observed 0400 UTC 26 March 2019
Temperature: 5.0°C (41°F)
Dewpoint: -5.0°C (23°F) [RH = 48%]
Pressure (altimeter): 29.92 inches Hg (1013.3 mb)
[Sea-level pressure: 1017.0 mb]
Winds: from the WNW (290 degrees) at 6 MPH (5 knots; 2.6 m/s)
Visibility: 30 miles (48 km)
Ceiling: 20000 feet AGL
Clouds: scattered clouds at 10000 feet AGL
broken clouds at 20000 feet AGL
Weather: no significant weather observed at this time

METAR text: CYXY 260300Z 31006KT 40SM FEW092 BKN200 06/M05 A2992 RMK AC2CI3 SLP170
Conditions at: CYXY (WHITEHORSE AIRPO, YT, CA) observed 0300 UTC 26 March 2019
Temperature: 6.0°C (43°F)
Dewpoint: -5.0°C (23°F) [RH = 45%]
Pressure (altimeter): 29.92 inches Hg (1013.3 mb)
[Sea-level pressure: 1017.0 mb]
Winds: from the NW (310 degrees) at 7 MPH (6 knots; 3.1 m/s)
Visibility: 40 miles (64 km)
Ceiling: 20000 feet AGL
Clouds: few clouds at 9200 feet AGL
broken clouds at 20000 feet AGL
Weather: no significant weather observed at this time

METAR text: CYXY 260200Z 35006KT 320V020 40SM FEW080 BKN160 09/M06 A2993 RMK AC1AS5 SLP170
Conditions at: CYXY (WHITEHORSE AIRPO, YT, CA) observed 0200 UTC 26 March 2019
Temperature: 9.0°C (48°F)
Dewpoint: -6.0°C (21°F) [RH = 34%]
Pressure (altimeter): 29.93 inches Hg (1013.6 mb)
[Sea-level pressure: 1017.0 mb]
Winds: from the N (350 degrees) at 7 MPH (6 knots; 3.1 m/s)
Visibility: 40 miles (64 km)
Ceiling: 16000 feet AGL
Clouds: few clouds at 8000 feet AGL
broken clouds at 16000 feet AGL
Weather: no significant weather observed at this time

METAR text: CYXY 260100Z 35005KT 320V020 40SM FEW065 FEW160 BKN180 09/M05 A2994 RMK SC1AC1AS6 AC TR SLP175
Conditions at: CYXY (WHITEHORSE AIRPO, YT, CA) observed 0100 UTC 26 March 2019
Temperature: 9.0°C (48°F)
Dewpoint: -5.0°C (23°F) [RH = 37%]
Pressure (altimeter): 29.94 inches Hg (1014.0 mb)
[Sea-level pressure: 1017.5 mb]
Winds: from the N (350 degrees) at 6 MPH (5 knots; 2.6 m/s)
Visibility: 40 miles (64 km)
Ceiling: 18000 feet AGL
Clouds: few clouds at 6500 feet AGL
few clouds at 16000 feet AGL
broken clouds at 18000 feet AGL
Weather: no significant weather observed at this time

METAR text: CYXY 260000Z 36006KT 330V050 40SM FEW060 FEW160 BKN200 09/M06 A2995 RMK SC1AC1CI7 SC TR AC TR SLP178
Conditions at: CYXY (WHITEHORSE AIRPO, YT, CA) observed 0000 UTC 26 March 2019
Temperature: 9.0°C (48°F)
Dewpoint: -6.0°C (21°F) [RH = 34%]
Pressure (altimeter): 29.95 inches Hg (1014.3 mb)
[Sea-level pressure: 1017.8 mb]
Winds: from the N (360 degrees) at 7 MPH (6 knots; 3.1 m/s)
Visibility: 40 miles (64 km)
Ceiling: 20000 feet AGL
Clouds: few clouds at 6000 feet AGL
few clouds at 16000 feet AGL
broken clouds at 20000 feet AGL
Weather: no significant weather observed at this time

METAR text: CYXY 252300Z VRB03KT 40SM FEW055 FEW160 BKN250 09/M06 A2997 RMK CF1AC1CI6 CF TR AC TR SLP182
Conditions at: CYXY (WHITEHORSE AIRPO, YT, CA) observed 2300 UTC 25 March 2019
Temperature: 9.0°C (48°F)
Dewpoint: -6.0°C (21°F) [RH = 34%]
Pressure (altimeter): 29.97 inches Hg (1015.0 mb)
[Sea-level pressure: 1018.2 mb]
Winds: variable direction winds at 3 MPH (3 knots; 1.5 m/s)
Visibility: 40 miles (64 km)
Ceiling: 25000 feet AGL
Clouds: few clouds at 5500 feet AGL
few clouds at 16000 feet AGL
broken clouds at 25000 feet AGL
Weather: no significant weather observed at this time

METAR text: CYXY 252200Z 32003KT 220V030 40SM FEW055 FEW160 SCT250 09/M06 A2999 RMK CF1AC1CC4 CF TR AC TR SLP193
Conditions at: CYXY (WHITEHORSE AIRPO, YT, CA) observed 2200 UTC 25 March 2019
Temperature: 9.0°C (48°F)
Dewpoint: -6.0°C (21°F) [RH = 34%]
Pressure (altimeter): 29.99 inches Hg (1015.7 mb)
[Sea-level pressure: 1019.3 mb]
Winds: from the NW (320 degrees) at 3 MPH (3 knots; 1.5 m/s)
Visibility: 40 miles (64 km)
Ceiling: at least 12,000 feet AGL
Clouds: few clouds at 5500 feet AGL
few clouds at 16000 feet AGL
scattered clouds at 25000 feet AGL
Weather: no significant weather observed at this time

METAR text: CYXY 252100Z 18003KT 140V240 40SM FEW180 BKN230 07/M07 A3002 RMK AC1CI5 AC TR SLP200
Conditions at: CYXY (WHITEHORSE AIRPO, YT, CA) observed 2100 UTC 25 March 2019
Temperature: 7.0°C (45°F)
Dewpoint: -7.0°C (19°F) [RH = 36%]
Pressure (altimeter): 30.02 inches Hg (1016.7 mb)
[Sea-level pressure: 1020.0 mb]
Winds: from the S (180 degrees) at 3 MPH (3 knots; 1.5 m/s)
Visibility: 40 miles (64 km)
Ceiling: 23000 feet AGL
Clouds: few clouds at 18000 feet AGL
broken clouds at 23000 feet AGL
Weather: no significant weather observed at this time

METAR text: CYXY 252000Z 16004KT 090V190 40SM FEW180 FEW230 06/M05 A3004 RMK AC1CI2 AC TR SLP211
Conditions at: CYXY (WHITEHORSE AIRPO, YT, CA) observed 2000 UTC 25 March 2019
Temperature: 6.0°C (43°F)
Dewpoint: -5.0°C (23°F) [RH = 45%]
Pressure (altimeter): 30.04 inches Hg (1017.4 mb)
[Sea-level pressure: 1021.1 mb]
Winds: from the SSE (160 degrees) at 5 MPH (4 knots; 2.1 m/s)
Visibility: 40 miles (64 km)
Ceiling: at least 12,000 feet AGL
Clouds: few clouds at 18000 feet AGL
few clouds at 23000 feet AGL
Weather: no significant weather observed at this time

METAR text: CYXY 251900Z 15006KT 40SM FEW180 04/M05 A3007 RMK AC2 SLP223
Conditions at: CYXY (WHITEHORSE AIRPO, YT, CA) observed 1900 UTC 25 March 2019
Temperature: 4.0°C (39°F)
Dewpoint: -5.0°C (23°F) [RH = 52%]
Pressure (altimeter): 30.07 inches Hg (1018.4 mb)
[Sea-level pressure: 1022.3 mb]
Winds: from the SSE (150 degrees) at 7 MPH (6 knots; 3.1 m/s)
Visibility: 40 miles (64 km)
Ceiling: at least 12,000 feet AGL
Clouds: few clouds at 18000 feet AGL
Weather: no significant weather observed at this time

METAR text: CYXY 251800Z 14006KT 40SM FEW100 FEW180 BKN230 01/M05 A3009 RMK AC1AC1CI6 AC TR AC TR SLP230
Conditions at: CYXY (WHITEHORSE AIRPO, YT, CA) observed 1800 UTC 25 March 2019
Temperature: 1.0°C (34°F)
Dewpoint: -5.0°C (23°F) [RH = 64%]
Pressure (altimeter): 30.09 inches Hg (1019.0 mb)
[Sea-level pressure: 1023.0 mb]
Winds: from the SE (140 degrees) at 7 MPH (6 knots; 3.1 m/s)
Visibility: 40 miles (64 km)
Ceiling: 23000 feet AGL
Clouds: few clouds at 10000 feet AGL
few clouds at 18000 feet AGL
broken clouds at 23000 feet AGL
Weather: no significant weather observed at this time

METAR text: CYXY 251700Z 12002KT 40SM FEW100 SCT180 BKN230 M02/M06 A3011 RMK AC1AC2CI3 SLP236
Conditions at: CYXY (WHITEHORSE AIRPO, YT, CA) observed 1700 UTC 25 March 2019
Temperature: -2.0°C (28°F)
Dewpoint: -6.0°C (21°F) [RH = 74%]
Pressure (altimeter): 30.11 inches Hg (1019.7 mb)
[Sea-level pressure: 1023.6 mb]
Winds: from the ESE (120 degrees) at 2 MPH (2 knots; 1.0 m/s)
Visibility: 40 miles (64 km)
Ceiling: 23000 feet AGL
Clouds: few clouds at 10000 feet AGL
scattered clouds at 18000 feet AGL
broken clouds at 23000 feet AGL
Weather: no significant weather observed at this time

METAR text: CYXY 251600Z 19002KT 40SM FEW100 BKN140 BKN180 M03/M06 A3012 RMK AC2AC4AC1 SLP239
Conditions at: CYXY (WHITEHORSE AIRPO, YT, CA) observed 1600 UTC 25 March 2019
Temperature: -3.0°C (27°F)
Dewpoint: -6.0°C (21°F) [RH = 80%]
Pressure (altimeter): 30.12 inches Hg (1020.1 mb)
[Sea-level pressure: 1023.9 mb]
Winds: from the S (190 degrees) at 2 MPH (2 knots; 1.0 m/s)
Visibility: 40 miles (64 km)
Ceiling: 14000 feet AGL
Clouds: few clouds at 10000 feet AGL
broken clouds at 14000 feet AGL
broken clouds at 18000 feet AGL
Weather: no significant weather observed at this time

METAR text: CYXY 251500Z 16003KT 40SM BKN120 BKN180 M04/M06 A3013 RMK AC5AC2 SLP241
Conditions at: CYXY (WHITEHORSE AIRPO, YT, CA) observed 1500 UTC 25 March 2019
Temperature: -4.0°C (25°F)
Dewpoint: -6.0°C (21°F) [RH = 86%]
Pressure (altimeter): 30.13 inches Hg (1020.4 mb)
[Sea-level pressure: 1024.1 mb]
Winds: from the SSE (160 degrees) at 3 MPH (3 knots; 1.5 m/s)
Visibility: 40 miles (64 km)
Ceiling: 12000 feet AGL
Clouds: broken clouds at 12000 feet AGL
broken clouds at 18000 feet AGL
Weather: no significant weather observed at this time

METAR text: CYXY 251400Z 17004KT 15SM BKN160 M04/M07 A3013 RMK AC7 SLP241
Conditions at: CYXY (WHITEHORSE AIRPO, YT, CA) observed 1400 UTC 25 March 2019
Temperature: -4.0°C (25°F)
Dewpoint: -7.0°C (19°F) [RH = 80%]
Pressure (altimeter): 30.13 inches Hg (1020.4 mb)
[Sea-level pressure: 1024.1 mb]
Winds: from the S (170 degrees) at 5 MPH (4 knots; 2.1 m/s)
Visibility: 15 miles (24 km)
Ceiling: 16000 feet AGL
Clouds: broken clouds at 16000 feet AGL
Weather: no significant weather observed at this time

METAR text: CYXY 251300Z 16005KT 15SM BKN190 M04/M07 A3015 RMK AC7 SLP246
Conditions at: CYXY (WHITEHORSE AIRPO, YT, CA) observed 1300 UTC 25 March 2019
Temperature: -4.0°C (25°F)
Dewpoint: -7.0°C (19°F) [RH = 80%]
Pressure (altimeter): 30.15 inches Hg (1021.1 mb)
[Sea-level pressure: 1024.6 mb]
Winds: from the SSE (160 degrees) at 6 MPH (5 knots; 2.6 m/s)
Visibility: 15 miles (24 km)
Ceiling: 19000 feet AGL
Clouds: broken clouds at 19000 feet AGL
Weather: no significant weather observed at this time

METAR text: CYXY 251200Z 17004KT 15SM SCT190 M03/M06 A3016 RMK CI4 SLP250
Conditions at: CYXY (WHITEHORSE AIRPO, YT, CA) observed 1200 UTC 25 March 2019
Temperature: -3.0°C (27°F)
Dewpoint: -6.0°C (21°F) [RH = 80%]
Pressure (altimeter): 30.16 inches Hg (1021.4 mb)
[Sea-level pressure: 1025.0 mb]
Winds: from the S (170 degrees) at 5 MPH (4 knots; 2.1 m/s)
Visibility: 15 miles (24 km)
Ceiling: at least 12,000 feet AGL
Clouds: scattered clouds at 19000 feet AGL
Weather: no significant weather observed at this time

METAR text: CYXY 251100Z VRB02KT 15SM FEW200 M04/M06 A3017 RMK CI2 SLP253
Conditions at: CYXY (WHITEHORSE AIRPO, YT, CA) observed 1100 UTC 25 March 2019
Temperature: -4.0°C (25°F)
Dewpoint: -6.0°C (21°F) [RH = 86%]
Pressure (altimeter): 30.17 inches Hg (1021.8 mb)
[Sea-level pressure: 1025.3 mb]
Winds: variable direction winds at 2 MPH (2 knots; 1.0 m/s)
Visibility: 15 miles (24 km)
Ceiling: at least 12,000 feet AGL
Clouds: few clouds at 20000 feet AGL
Weather: no significant weather observed at this time

METAR text: CYXY 251000Z 19003KT 15SM FEW200 M03/M06 A3017 RMK CI2 SLP255
Conditions at: CYXY (WHITEHORSE AIRPO, YT, CA) observed 1000 UTC 25 March 2019
Temperature: -3.0°C (27°F)
Dewpoint: -6.0°C (21°F) [RH = 80%]
Pressure (altimeter): 30.17 inches Hg (1021.8 mb)
[Sea-level pressure: 1025.5 mb]
Winds: from the S (190 degrees) at 3 MPH (3 knots; 1.5 m/s)
Visibility: 15 miles (24 km)
Ceiling: at least 12,000 feet AGL
Clouds: few clouds at 20000 feet AGL
Weather: no significant weather observed at this time

METAR text: CYXY 250900Z 00000KT 15SM FEW200 M02/M06 A3018 RMK CI2 SLP256
Conditions at: CYXY (WHITEHORSE AIRPO, YT, CA) observed 0900 UTC 25 March 2019
Temperature: -2.0°C (28°F)
Dewpoint: -6.0°C (21°F) [RH = 74%]
Pressure (altimeter): 30.18 inches Hg (1022.1 mb)
[Sea-level pressure: 1025.6 mb]
Winds: calm
Visibility: 15 miles (24 km)
Ceiling: at least 12,000 feet AGL
Clouds: few clouds at 20000 feet AGL
Weather: no significant weather observed at this time

METAR text: CYXY 250800Z 25002KT 15SM FEW200 M02/M06 A3018 RMK CI2 SLP257
Conditions at: CYXY (WHITEHORSE AIRPO, YT, CA) observed 0800 UTC 25 March 2019
Temperature: -2.0°C (28°F)
Dewpoint: -6.0°C (21°F) [RH = 74%]
Pressure (altimeter): 30.18 inches Hg (1022.1 mb)
[Sea-level pressure: 1025.7 mb]
Winds: from the WSW (250 degrees) at 2 MPH (2 knots; 1.0 m/s)
Visibility: 15 miles (24 km)
Ceiling: at least 12,000 feet AGL
Clouds: few clouds at 20000 feet AGL
Weather: no significant weather observed at this time

METAR text: CYXY 250700Z 22003KT 15SM SCT200 M02/M06 A3017 RMK CI3 SLP257
Conditions at: CYXY (WHITEHORSE AIRPO, YT, CA) observed 0700 UTC 25 March 2019
Temperature: -2.0°C (28°F)
Dewpoint: -6.0°C (21°F) [RH = 74%]
Pressure (altimeter): 30.17 inches Hg (1021.8 mb)
[Sea-level pressure: 1025.7 mb]
Winds: from the SW (220 degrees) at 3 MPH (3 knots; 1.5 m/s)
Visibility: 15 miles (24 km)
Ceiling: at least 12,000 feet AGL
Clouds: scattered clouds at 20000 feet AGL
Weather: no significant weather observed at this time

METAR text: CYXY 250600Z 25002KT 15SM SCT200 M00/M06 A3018 RMK CI3 SLP258
Conditions at: CYXY (WHITEHORSE AIRPO, YT, CA) observed 0600 UTC 25 March 2019
Temperature: 0.0°C (32°F)
Dewpoint: -6.0°C (21°F) [RH = 64%]
Pressure (altimeter): 30.18 inches Hg (1022.1 mb)
[Sea-level pressure: 1025.8 mb]
Winds: from the WSW (250 degrees) at 2 MPH (2 knots; 1.0 m/s)
Visibility: 15 miles (24 km)
Ceiling: at least 12,000 feet AGL
Clouds: scattered clouds at 20000 feet AGL
Weather: no significant weather observed at this time

METAR text: CYXY 250509Z 00000KT 15SM SCT200 02/M05 A3017 RMK CI3 SLP255
Conditions at: CYXY (WHITEHORSE AIRPO, YT, CA) observed 0509 UTC 25 March 2019
Temperature: 2.0°C (36°F)
Dewpoint: -5.0°C (23°F) [RH = 60%]
Pressure (altimeter): 30.17 inches Hg (1021.8 mb)
[Sea-level pressure: 1025.5 mb]
Winds: calm
Visibility: 15 miles (24 km)
Ceiling: at least 12,000 feet AGL
Clouds: scattered clouds at 20000 feet AGL
Weather: no significant weather observed at this time

METAR text: CYXY 250500Z VRB02KT 15SM SCT200 03/M06 A3017 RMK CI3 SLP255
Conditions at: CYXY (WHITEHORSE AIRPO, YT, CA) observed 0500 UTC 25 March 2019
Temperature: 3.0°C (37°F)
Dewpoint: -6.0°C (21°F) [RH = 52%]
Pressure (altimeter): 30.17 inches Hg (1021.8 mb)
[Sea-level pressure: 1025.5 mb]
Winds: variable direction winds at 2 MPH (2 knots; 1.0 m/s)
Visibility: 15 miles (24 km)
Ceiling: at least 12,000 feet AGL
Clouds: scattered clouds at 20000 feet AGL
Weather: no significant weather observed at this time

METAR text: CYXY 250418Z 14004KT 40SM SCT200 02/M04 A3017 RMK CI3 SLP258
Conditions at: CYXY (WHITEHORSE AIRPO, YT, CA) observed 0418 UTC 25 March 2019
Temperature: 2.0°C (36°F)
Dewpoint: -4.0°C (25°F) [RH = 64%]
Pressure (altimeter): 30.17 inches Hg (1021.8 mb)
[Sea-level pressure: 1025.8 mb]
Winds: from the SE (140 degrees) at 5 MPH (4 knots; 2.1 m/s)
Visibility: 40 miles (64 km)
Ceiling: at least 12,000 feet AGL
Clouds: scattered clouds at 20000 feet AGL
Weather: no significant weather observed at this time

METAR text: CYXY 250400Z VRB02KT 40SM SCT200 04/M06 A3017 RMK CI3 SLP256
Conditions at: CYXY (WHITEHORSE AIRPO, YT, CA) observed 0400 UTC 25 March 2019
Temperature: 4.0°C (39°F)
Dewpoint: -6.0°C (21°F) [RH = 48%]
Pressure (altimeter): 30.17 inches Hg (1021.8 mb)
[Sea-level pressure: 1025.6 mb]
Winds: variable direction winds at 2 MPH (2 knots; 1.0 m/s)
Visibility: 40 miles (64 km)
Ceiling: at least 12,000 feet AGL
Clouds: scattered clouds at 20000 feet AGL
Weather: no significant weather observed at this time

METAR text: CYXY 250300Z 24006KT 40SM FEW180 BKN250 06/M06 A3016 RMK AC1CI4 SLP251
Conditions at: CYXY (WHITEHORSE AIRPO, YT, CA) observed 0300 UTC 25 March 2019
Temperature: 6.0°C (43°F)
Dewpoint: -6.0°C (21°F) [RH = 42%]
Pressure (altimeter): 30.16 inches Hg (1021.4 mb)
[Sea-level pressure: 1025.1 mb]
Winds: from the WSW (240 degrees) at 7 MPH (6 knots; 3.1 m/s)
Visibility: 40 miles (64 km)
Ceiling: 25000 feet AGL
Clouds: few clouds at 18000 feet AGL
broken clouds at 25000 feet AGL
Weather: no significant weather observed at this time

METAR text: CYXY 250200Z 23010KT 40SM FEW180 FEW240 08/M07 A3016 RMK AC1CI2 AC TR SLP247
Conditions at: CYXY (WHITEHORSE AIRPO, YT, CA) observed 0200 UTC 25 March 2019
Temperature: 8.0°C (46°F)
Dewpoint: -7.0°C (19°F) [RH = 34%]
Pressure (altimeter): 30.16 inches Hg (1021.4 mb)
[Sea-level pressure: 1024.7 mb]
Winds: from the SW (230 degrees) at 12 MPH (10 knots; 5.1 m/s)
Visibility: 40 miles (64 km)
Ceiling: at least 12,000 feet AGL
Clouds: few clouds at 18000 feet AGL
few clouds at 24000 feet AGL
Weather: no significant weather observed at this time

Forecast for: CYXY (WHITEHORSE AIRPO, YT, CA)
Text: TAF CYXY 261138Z 2612/2624 VRB03KT P6SM OVC040
Forecast period: 1200 to 1600 UTC 26 March 2019
Forecast type: FROM: standard forecast or significant change
Winds: variable direction winds at 3 MPH (3 knots; 1.5 m/s)
Visibility: 6 or more miles 10+ km)
Ceiling: 4000 feet AGL
Clouds: overcast cloud deck at 4000 feet AGL
Weather: no significant weather forecast for this period
Text: TEMPO 2612/2616 34012KT 6SM -SHRASN BR OVC020
Forecast period: 1200 to 1600 UTC 26 March 2019
Forecast type: TEMPORARY: The following changes expected for less than half the time period
Winds: from the NNW (340 degrees) at 14 MPH (12 knots; 6.2 m/s)
Visibility: 6 miles (10 km)
Ceiling: 2000 feet AGL
Clouds: overcast cloud deck at 2000 feet AGL
Weather: -SHRA -SHSN BR  (light rain showers, light snow showers, mist)
Text: FM261600 34008KT P6SM FEW080
Forecast period: 1600 to 2200 UTC 26 March 2019
Forecast type: FROM: standard forecast or significant change
Winds: from the NNW (340 degrees) at 9 MPH (8 knots; 4.1 m/s)
Visibility: 6 or more miles 10+ km)
Ceiling: at least 12,000 feet AGL
Clouds: few clouds at 8000 feet AGL
Weather: no significant weather forecast for this period
Text: FM262200 VRB03KT P6SM SCT050 RMK NXT FCST BY 261800Z
Forecast period: 2200 UTC 26 March 2019 to 0000 UTC 27 March 2019
Forecast type: FROM: standard forecast or significant change
Winds: variable direction winds at 3 MPH (3 knots; 1.5 m/s)
Visibility: 6 or more miles 10+ km)
Ceiling: at least 12,000 feet AGL
Clouds: scattered clouds at 5000 feet AGL
Weather: no significant weather forecast for this period